Time;durP1;ratioP1;P1;durP2;ratioP2;P2;SDS_P1;SDS_P2;PMS_P1;PMS_P2;Temp;Humidity;BMP_temperature;BMP_pressure;BME280_temperature;BME280_humidity;BME280_pressure;Samples;Min_cycle;Max_cycle;Signal;HPM_P1;HPM_P2
2024/03/24 00:01:35;;;;;;;7.75;3.63;;;;;;;5.24;100.00;99559.66;5105686;28;20028;-73
2024/03/24 00:04:05;;;;;;;7.30;3.97;;;;;;;5.35;100.00;99558.41;5109367;29;20039;-73
2024/03/24 00:06:35;;;;;;;7.28;3.13;;;;;;;5.38;100.00;99563.53;5110062;28;20442;-73
2024/03/24 00:09:09;;;;;;;8.90;3.75;;;;;;;5.34;100.00;99563.66;5107259;29;20118;-73
2024/03/24 00:11:42;;;;;;;6.65;3.50;;;;;;;5.31;100.00;99556.81;5111155;28;20530;-73
2024/03/24 00:14:13;;;;;;;6.22;3.60;;;;;;;5.40;100.00;99553.97;5108427;28;20403;-74
2024/03/24 00:16:44;;;;;;;6.10;3.22;;;;;;;5.48;100.00;99544.19;5107609;28;20102;-71
2024/03/24 00:19:14;;;;;;;5.97;2.95;;;;;;;5.49;100.00;99538.97;5105333;29;20054;-73
2024/03/24 00:21:44;;;;;;;6.25;3.03;;;;;;;5.49;100.00;99538.97;5105623;28;20039;-72
2024/03/24 00:24:15;;;;;;;5.93;3.45;;;;;;;5.53;100.00;99539.72;5109808;29;20039;-73
2024/03/24 00:26:45;;;;;;;6.28;3.20;;;;;;;5.56;100.00;99535.28;5110007;28;20498;-73
2024/03/24 00:29:15;;;;;;;6.75;3.20;;;;;;;5.49;100.00;99540.72;5109949;29;20035;-74
2024/03/24 00:31:46;;;;;;;6.38;3.10;;;;;;;5.54;100.00;99526.72;5109797;28;20050;-74
2024/03/24 00:34:16;;;;;;;6.25;2.75;;;;;;;5.57;100.00;99525.78;5107672;29;20166;-73
2024/03/24 00:36:47;;;;;;;7.13;3.47;;;;;;;5.55;100.00;99528.41;5107124;28;20409;-72
2024/03/24 00:39:17;;;;;;;7.40;3.08;;;;;;;5.64;100.00;99528.13;5107412;29;20474;-73
2024/03/24 00:41:48;;;;;;;5.68;3.15;;;;;;;5.57;100.00;99525.78;5107758;28;20423;-74
2024/03/24 00:44:18;;;;;;;8.65;3.67;;;;;;;5.59;100.00;99509.28;5109069;29;20035;-71
2024/03/24 00:46:48;;;;;;;7.85;3.10;;;;;;;5.70;100.00;99514.09;5106827;29;20083;-72
2024/03/24 00:49:19;;;;;;;7.00;3.20;;;;;;;5.65;99.46;99511.69;5108291;28;20031;-71
2024/03/24 00:51:49;;;;;;;9.15;3.88;;;;;;;5.59;99.34;99504.09;5104511;28;20487;-74
2024/03/24 00:54:19;;;;;;;7.68;3.58;;;;;;;5.63;99.10;99510.03;5107235;29;20034;-71
2024/03/24 00:56:49;;;;;;;8.18;3.83;;;;;;;5.70;98.74;99490.78;5106313;28;20042;-73
2024/03/24 00:59:20;;;;;;;8.32;3.45;;;;;;;5.57;98.25;99499.88;5100473;28;20106;-71
2024/03/24 01:01:50;;;;;;;6.32;3.90;;;;;;;5.71;98.09;99498.50;5100409;29;20031;-74
2024/03/24 01:04:20;;;;;;;6.80;3.83;;;;;;;5.73;97.96;99488.09;5116186;28;20038;-71
2024/03/24 01:06:51;;;;;;;9.50;4.10;;;;;;;5.72;98.35;99483.81;5115378;28;20032;-73
2024/03/24 01:09:21;;;;;;;10.05;4.13;;;;;;;5.76;97.14;99490.59;5098811;29;20035;-71
2024/03/24 01:11:51;;;;;;;9.35;3.78;;;;;;;5.66;96.64;99486.59;5104322;29;20065;-73
2024/03/24 01:14:21;;;;;;;9.95;4.20;;;;;;;5.73;97.14;99480.34;5097158;29;20027;-71
2024/03/24 01:16:52;;;;;;;7.10;4.30;;;;;;;5.67;97.41;99478.78;5092406;28;20476;-73
2024/03/24 01:19:22;;;;;;;5.50;3.55;;;;;;;5.66;97.20;99479.69;5095961;29;20031;-71
2024/03/24 01:21:53;;;;;;;8.75;4.25;;;;;;;5.54;97.57;99468.88;5099328;29;20061;-74
2024/03/24 01:24:23;;;;;;;6.40;3.85;;;;;;;5.39;98.73;99469.38;5098118;29;20052;-71
2024/03/24 01:26:53;;;;;;;8.70;4.25;;;;;;;5.46;98.43;99463.97;5099871;28;20263;-71
2024/03/24 01:29:24;;;;;;;7.25;3.72;;;;;;;5.62;97.77;99459.97;5096712;29;20046;-71
2024/03/24 01:31:54;;;;;;;6.72;3.78;;;;;;;5.59;97.03;99466.97;5100030;29;20046;-72
2024/03/24 01:34:25;;;;;;;8.73;3.90;;;;;;;5.42;96.85;99459.75;5098892;29;20028;-71
2024/03/24 01:36:55;;;;;;;6.55;3.83;;;;;;;5.53;97.20;99454.22;5086052;28;20690;-74
2024/03/24 01:39:26;;;;;;;6.65;3.83;;;;;;;5.50;97.49;99454.31;5096948;29;20056;-73
2024/03/24 01:41:58;;;;;;;6.63;3.75;;;;;;;5.52;97.19;99447.34;5102298;28;20410;-74
2024/03/24 01:44:30;;;;;;;6.95;3.45;;;;;;;5.47;96.70;99441.47;5097403;28;20050;-74
2024/03/24 01:47:01;;;;;;;6.50;3.55;;;;;;;5.38;97.31;99446.97;5111256;28;20042;-74
2024/03/24 01:49:31;;;;;;;6.43;3.33;;;;;;;5.34;97.51;99434.16;5093994;29;20032;-73
2024/03/24 01:52:08;;;;;;;9.45;3.55;;;;;;;5.28;97.58;99430.03;5095821;29;20418;-72
2024/03/24 01:54:39;;;;;;;7.53;3.40;;;;;;;5.35;96.79;99435.84;5099615;29;20289;-73
2024/03/24 01:57:09;;;;;;;5.18;3.00;;;;;;;5.33;97.58;99428.13;5110007;28;20034;-73
2024/03/24 01:59:39;;;;;;;6.25;3.35;;;;;;;5.39;97.48;99426.19;5092957;29;20039;-74
2024/03/24 02:02:09;;;;;;;5.57;2.67;;;;;;;5.34;97.16;99421.22;5095860;29;20028;-74
2024/03/24 02:04:47;;;;;;;7.10;3.38;;;;;;;5.37;97.16;99416.78;5094220;28;20054;-75
2024/03/24 02:07:18;;;;;;;8.13;3.00;;;;;;;5.47;96.57;99412.97;5092226;29;20028;-73
2024/03/24 02:09:48;;;;;;;9.38;3.30;;;;;;;5.35;97.06;99415.97;5093346;28;20027;-73
2024/03/24 02:12:18;;;;;;;7.53;3.08;;;;;;;5.39;96.36;99415.00;5097179;29;20522;-73
2024/03/24 02:14:49;;;;;;;6.95;2.88;;;;;;;5.32;96.29;99405.72;5098553;29;20032;-73
2024/03/24 02:17:19;;;;;;;8.38;3.10;;;;;;;5.26;97.33;99403.34;5096184;28;20558;-72
2024/03/24 02:19:49;;;;;;;5.45;3.20;;;;;;;5.31;96.96;99403.19;5092915;29;20103;-74
2024/03/24 02:22:19;;;;;;;5.05;2.85;;;;;;;5.31;97.67;99401.44;5092941;29;20056;-73
2024/03/24 02:24:50;;;;;;;6.68;3.25;;;;;;;5.39;97.27;99387.31;5090718;29;20422;-74
2024/03/24 02:27:20;;;;;;;5.93;3.00;;;;;;;5.33;96.63;99388.44;5095858;28;20427;-73
2024/03/24 02:29:50;;;;;;;5.72;3.22;;;;;;;5.18;97.04;99383.78;5092924;28;20197;-73
2024/03/24 02:32:21;;;;;;;9.40;3.40;;;;;;;5.04;98.96;99381.63;5097709;28;20491;-73
2024/03/24 02:34:52;;;;;;;6.80;3.22;;;;;;;5.20;97.75;99372.47;5094833;29;20024;-73
2024/03/24 02:37:22;;;;;;;7.80;3.42;;;;;;;5.15;97.31;99376.09;5095003;29;20368;-74
2024/03/24 02:39:53;;;;;;;7.05;3.03;;;;;;;5.09;98.12;99364.19;5096457;28;20127;-74
2024/03/24 02:42:24;;;;;;;7.25;3.47;;;;;;;5.19;98.42;99356.97;5093092;29;20036;-74
2024/03/24 02:44:54;;;;;;;4.93;3.30;;;;;;;5.13;97.87;99355.44;5100004;28;20483;-72
2024/03/24 02:47:25;;;;;;;5.07;3.35;;;;;;;5.23;97.32;99346.47;5097630;29;20019;-71
2024/03/24 02:49:55;;;;;;;4.63;3.20;;;;;;;5.23;98.36;99359.41;5094868;28;20055;-73
2024/03/24 02:52:25;;;;;;;6.50;3.25;;;;;;;5.33;98.57;99345.25;5098839;28;20042;-72
2024/03/24 02:54:55;;;;;;;6.45;4.00;;;;;;;5.38;97.52;99347.69;5096553;28;20256;-74
2024/03/24 02:57:26;;;;;;;6.65;3.58;;;;;;;5.49;97.98;99347.25;5097167;29;20055;-74
2024/03/24 02:59:57;;;;;;;8.93;3.22;;;;;;;5.42;97.62;99339.75;5095881;28;20394;-72
2024/03/24 03:02:28;;;;;;;6.93;3.38;;;;;;;5.38;97.80;99338.19;5100227;28;20027;-71
2024/03/24 03:04:58;;;;;;;8.55;3.05;;;;;;;5.37;98.39;99336.50;5096969;29;20082;-72
2024/03/24 03:07:29;;;;;;;7.32;3.33;;;;;;;5.41;98.70;99333.72;5098721;29;20525;-71
2024/03/24 03:09:59;;;;;;;5.10;3.28;;;;;;;5.46;98.00;99328.38;5100730;29;20612;-73
2024/03/24 03:12:29;;;;;;;5.50;3.22;;;;;;;5.41;97.29;99325.13;5116585;28;20031;-72
2024/03/24 03:14:59;;;;;;;8.30;3.45;;;;;;;5.52;96.97;99321.25;5105300;29;20065;-74
2024/03/24 03:17:31;;;;;;;6.88;3.45;;;;;;;5.48;97.28;99311.03;5100125;29;20039;-72
2024/03/24 03:20:04;;;;;;;11.45;3.42;;;;;;;5.52;96.77;99308.28;5116642;28;20048;-74
2024/03/24 03:22:34;;;;;;;5.60;2.88;;;;;;;5.54;96.64;99308.25;5098330;28;20031;-73
2024/03/24 03:25:05;;;;;;;5.97;3.28;;;;;;;5.49;97.47;99299.78;5103006;29;20042;-74
2024/03/24 03:27:35;;;;;;;6.57;3.30;;;;;;;5.48;96.74;99303.28;5097945;29;20435;-74
2024/03/24 03:30:06;;;;;;;6.50;2.88;;;;;;;5.50;97.21;99301.47;5112086;28;20067;-74
2024/03/24 03:32:37;;;;;;;6.63;3.10;;;;;;;5.56;96.65;99290.91;5096913;29;20031;-74
2024/03/24 03:35:08;;;;;;;7.70;3.03;;;;;;;5.64;96.88;99283.69;5105878;29;20086;-74
2024/03/24 03:37:38;;;;;;;6.45;3.00;;;;;;;5.44;97.73;99286.97;5098081;29;20106;-74
2024/03/24 03:40:09;;;;;;;9.27;3.20;;;;;;;5.65;97.60;99282.78;5100276;29;20020;-74
2024/03/24 03:42:39;;;;;;;6.30;2.72;;;;;;;5.71;97.61;99282.56;5098666;29;20027;-73
2024/03/24 03:45:10;;;;;;;5.03;3.05;;;;;;;5.63;97.45;99282.00;5103696;29;20027;-73
2024/03/24 03:47:41;;;;;;;6.78;2.67;;;;;;;5.58;98.09;99276.16;5096738;28;20039;-73
2024/03/24 03:50:17;;;;;;;7.80;2.80;;;;;;;5.72;97.54;99276.50;5095915;29;20028;-73
2024/03/24 03:52:47;;;;;;;6.22;3.10;;;;;;;5.61;97.65;99260.47;5095811;29;20035;-72
2024/03/24 03:55:18;;;;;;;4.90;2.60;;;;;;;5.69;97.87;99263.63;5104749;29;20066;-74
2024/03/24 03:57:48;;;;;;;6.38;3.42;;;;;;;5.81;96.55;99265.81;5094910;29;20525;-73
2024/03/24 04:00:19;;;;;;;8.48;2.90;;;;;;;5.79;95.65;99258.09;5098273;29;20051;-73
2024/03/24 04:02:49;;;;;;;6.32;2.67;;;;;;;5.78;95.93;99252.94;5097056;29;20126;-73
2024/03/24 04:05:20;;;;;;;4.07;2.30;;;;;;;5.80;95.87;99253.75;5097875;29;20062;-74
2024/03/24 04:07:50;;;;;;;6.35;2.60;;;;;;;5.81;95.99;99251.09;5111982;28;20557;-74
2024/03/24 04:10:21;;;;;;;5.43;2.47;;;;;;;5.72;95.96;99246.22;5096715;28;20031;-74
2024/03/24 04:12:51;;;;;;;5.88;2.80;;;;;;;5.79;97.11;99250.31;5111521;28;20156;-74
2024/03/24 04:15:21;;;;;;;4.88;2.80;;;;;;;5.92;96.23;99245.50;5102529;29;20039;-74
2024/03/24 04:17:51;;;;;;;5.63;2.40;;;;;;;5.59;96.28;99247.56;5097035;29;20031;-73
2024/03/24 04:20:22;;;;;;;5.93;2.40;;;;;;;5.71;97.05;99241.94;5096388;29;20106;-74
2024/03/24 04:22:52;;;;;;;6.22;2.92;;;;;;;5.78;96.56;99239.97;5097106;29;20071;-73
2024/03/24 04:25:22;;;;;;;7.18;2.55;;;;;;;5.74;96.41;99233.22;5103389;28;20031;-73
2024/03/24 04:27:53;;;;;;;6.85;2.67;;;;;;;5.82;96.90;99236.38;5100110;28;20027;-73
2024/03/24 04:30:23;;;;;;;4.70;2.40;;;;;;;5.76;96.46;99226.22;5095933;28;20074;-74
2024/03/24 04:32:53;;;;;;;6.13;2.58;;;;;;;5.84;96.30;99219.03;5095782;28;20031;-72
2024/03/24 04:35:23;;;;;;;8.68;2.70;;;;;;;5.92;96.52;99223.00;5098152;29;20035;-72
2024/03/24 04:37:54;;;;;;;6.07;2.35;;;;;;;5.92;96.40;99227.38;5096706;28;20063;-72
2024/03/24 04:40:24;;;;;;;4.78;2.58;;;;;;;5.94;96.43;99217.78;5090787;28;20024;-73
2024/03/24 04:42:54;;;;;;;4.38;2.40;;;;;;;5.98;95.21;99216.75;5095735;28;20443;-71
2024/03/24 04:45:26;;;;;;;5.32;2.60;;;;;;;6.00;95.08;99226.16;5116625;28;20046;-73
2024/03/24 04:47:56;;;;;;;5.20;2.67;;;;;;;5.81;95.82;99207.03;5096729;28;20119;-73
2024/03/24 04:50:27;;;;;;;7.13;2.20;;;;;;;5.92;95.28;99206.63;5099437;29;20020;-73
2024/03/24 04:52:58;;;;;;;6.68;2.50;;;;;;;5.93;94.65;99208.31;5111730;28;20036;-73
2024/03/24 04:55:29;;;;;;;9.40;2.53;;;;;;;5.97;94.70;99215.06;5097651;29;20434;-74
2024/03/24 04:57:59;;;;;;;6.47;2.13;;;;;;;6.03;94.53;99210.47;5093345;29;20023;-74
2024/03/24 05:00:29;;;;;;;4.32;2.60;;;;;;;5.96;93.90;99210.78;5097399;29;20372;-73
2024/03/24 05:02:59;;;;;;;7.65;2.35;;;;;;;5.95;94.87;99206.50;5095698;29;20051;-74
2024/03/24 05:05:30;;;;;;;5.53;2.50;;;;;;;5.90;95.07;99203.25;5096623;29;20020;-74
2024/03/24 05:08:01;;;;;;;3.88;2.25;;;;;;;5.97;95.64;99199.50;5108539;28;20427;-74
2024/03/24 05:10:32;;;;;;;4.20;2.15;;;;;;;5.93;94.88;99203.13;5095391;29;20094;-73
2024/03/24 05:13:03;;;;;;;4.00;2.35;;;;;;;5.97;94.41;99195.19;5092042;29;20058;-72
2024/03/24 05:15:34;;;;;;;5.47;2.80;;;;;;;5.86;95.43;99196.47;5099924;29;20058;-73
2024/03/24 05:18:07;;;;;;;5.35;2.30;;;;;;;6.00;94.32;99196.78;5097942;28;20034;-73
2024/03/24 05:20:38;;;;;;;4.80;2.38;;;;;;;5.97;94.12;99192.59;5100937;29;20034;-73
2024/03/24 05:23:08;;;;;;;5.30;2.78;;;;;;;6.04;94.96;99190.56;5103921;28;20024;-73
2024/03/24 05:25:39;;;;;;;5.05;2.80;;;;;;;6.04;94.78;99181.06;5096273;29;20030;-73
2024/03/24 05:28:09;;;;;;;4.95;2.38;;;;;;;6.05;93.50;99181.91;5096184;29;20038;-73
2024/03/24 05:30:40;;;;;;;6.13;2.60;;;;;;;6.14;93.70;99181.53;5101364;29;20197;-71
2024/03/24 05:33:10;;;;;;;4.55;2.40;;;;;;;6.14;94.37;99176.34;5099883;29;20035;-74
2024/03/24 05:35:40;;;;;;;7.22;2.47;;;;;;;6.17;93.77;99171.88;5102268;29;20442;-74
2024/03/24 05:38:11;;;;;;;4.57;2.40;;;;;;;6.17;93.68;99168.44;5099498;28;20027;-74
2024/03/24 05:40:42;;;;;;;6.18;2.40;;;;;;;6.13;93.08;99162.56;5098834;28;20027;-72
2024/03/24 05:43:12;;;;;;;4.82;2.40;;;;;;;6.23;93.91;99168.22;5098707;29;20074;-74
2024/03/24 05:45:42;;;;;;;6.72;2.50;;;;;;;6.20;93.09;99170.91;5098719;28;20242;-71
2024/03/24 05:48:12;;;;;;;5.28;2.60;;;;;;;6.21;93.84;99167.41;5101165;28;20402;-74
2024/03/24 05:50:43;;;;;;;3.90;2.10;;;;;;;6.27;94.28;99157.63;5100779;28;20036;-71
2024/03/24 05:53:13;;;;;;;4.15;2.17;;;;;;;6.34;93.55;99158.22;5098226;29;20028;-73
2024/03/24 05:55:43;;;;;;;5.35;2.58;;;;;;;6.37;94.26;99160.69;5096022;29;20035;-72
2024/03/24 05:58:14;;;;;;;7.72;2.53;;;;;;;6.29;95.47;99160.16;5099674;29;20103;-73
2024/03/24 06:00:47;;;;;;;6.63;2.88;;;;;;;6.11;96.17;99145.34;5098227;29;20050;-72
2024/03/24 06:03:17;;;;;;;5.65;2.70;;;;;;;6.11;97.74;99153.13;5099538;29;20057;-73
2024/03/24 06:05:47;;;;;;;5.55;2.70;;;;;;;6.08;99.00;99155.84;5100841;28;20364;-71
2024/03/24 06:08:18;;;;;;;5.55;2.83;;;;;;;6.17;98.01;99145.09;5098245;29;20035;-73
2024/03/24 06:10:48;;;;;;;4.82;2.90;;;;;;;6.34;98.24;99158.22;5097900;29;20364;-71
2024/03/24 06:13:19;;;;;;;5.35;2.60;;;;;;;6.23;98.00;99150.88;5100581;28;20082;-74
2024/03/24 06:15:49;;;;;;;5.32;2.92;;;;;;;6.19;98.65;99143.28;5097995;28;20035;-74
2024/03/24 06:18:19;;;;;;;5.75;2.95;;;;;;;6.20;98.31;99137.19;5102243;29;20391;-74
2024/03/24 06:20:50;;;;;;;4.50;2.60;;;;;;;6.21;97.61;99141.47;5101907;29;20031;-72
2024/03/24 06:23:20;;;;;;;6.13;2.53;;;;;;;6.22;97.98;99132.81;5105663;29;20031;-74
2024/03/24 06:25:51;;;;;;;4.30;2.60;;;;;;;6.26;99.42;99135.19;5104550;28;20083;-73
2024/03/24 06:28:21;;;;;;;4.72;2.60;;;;;;;6.32;98.84;99134.09;5100428;29;20112;-74
2024/03/24 06:30:52;;;;;;;7.03;2.42;;;;;;;6.21;98.59;99137.13;5101037;29;20038;-74
2024/03/24 06:33:22;;;;;;;4.95;2.60;;;;;;;6.31;98.58;99132.41;5116909;28;20701;-73
2024/03/24 06:35:53;;;;;;;3.88;2.15;;;;;;;6.38;98.57;99131.22;5100567;28;20062;-74
2024/03/24 06:38:23;;;;;;;6.30;2.90;;;;;;;6.42;98.62;99128.44;5100717;29;20122;-74
2024/03/24 06:40:54;;;;;;;5.50;2.70;;;;;;;6.40;98.34;99121.66;5101046;28;20663;-73
2024/03/24 06:43:33;;;;;;;3.50;2.35;;;;;;;6.37;97.57;99126.94;5108868;28;20031;-74
2024/03/24 06:46:03;;;;;;;6.03;2.45;;;;;;;6.33;98.34;99122.81;5100635;28;20120;-73
2024/03/24 06:48:34;;;;;;;6.68;2.35;;;;;;;6.25;97.89;99127.50;5117494;28;20044;-74
2024/03/24 06:51:04;;;;;;;5.88;2.30;;;;;;;6.33;98.45;99128.84;5100387;28;20090;-74
2024/03/24 06:53:35;;;;;;;4.95;2.20;;;;;;;6.34;97.95;99130.53;5099828;29;20047;-71
2024/03/24 06:56:05;;;;;;;5.60;1.98;;;;;;;6.45;97.05;99130.91;5100660;29;20541;-74
2024/03/24 06:58:35;;;;;;;3.60;2.10;;;;;;;6.58;97.35;99126.91;5102576;29;20098;-71
2024/03/24 07:01:06;;;;;;;6.15;2.67;;;;;;;6.52;96.87;99131.50;5101074;28;20027;-74
2024/03/24 07:03:36;;;;;;;5.03;2.53;;;;;;;6.51;97.59;99122.03;5102403;28;20478;-71
2024/03/24 07:06:06;;;;;;;6.30;2.33;;;;;;;6.41;98.45;99118.16;5118170;28;20231;-74
2024/03/24 07:08:36;;;;;;;5.68;2.10;;;;;;;6.44;99.03;99118.03;5101142;29;20044;-71
2024/03/24 07:11:08;;;;;;;7.47;2.28;;;;;;;6.55;99.69;99116.66;5100589;29;20486;-75
2024/03/24 07:13:38;;;;;;;5.13;2.00;;;;;;;6.64;100.00;99105.03;5103668;29;20494;-73
2024/03/24 07:16:08;;;;;;;3.22;2.10;;;;;;;6.68;100.00;99104.00;5099046;29;20030;-74
2024/03/24 07:18:38;;;;;;;5.20;2.17;;;;;;;6.76;98.18;99100.16;5100789;29;20031;-71
2024/03/24 07:21:09;;;;;;;6.00;2.20;;;;;;;6.77;98.55;99098.41;5098536;28;20106;-75
2024/03/24 07:23:39;;;;;;;6.63;2.28;;;;;;;7.22;98.05;99088.53;5101919;29;20391;-73
2024/03/24 07:26:09;;;;;;;4.50;2.30;;;;;;;7.45;96.08;99097.81;5103259;28;20027;-73
2024/03/24 07:28:40;;;;;;;5.72;2.45;;;;;;;7.45;94.70;99097.81;5106547;29;20518;-74
2024/03/24 07:31:10;;;;;;;6.18;2.50;;;;;;;7.23;95.57;99093.69;5101966;28;20035;-74
2024/03/24 07:33:40;;;;;;;5.18;2.15;;;;;;;7.34;96.12;99086.25;5101810;28;20517;-74
2024/03/24 07:36:11;;;;;;;7.53;2.58;;;;;;;7.35;95.28;99095.72;5099066;28;20027;-73
2024/03/24 07:38:41;;;;;;;4.93;2.58;;;;;;;7.38;95.98;99095.56;5104135;28;20460;-75
2024/03/24 07:41:11;;;;;;;5.78;2.38;;;;;;;7.16;94.92;99086.22;5097200;29;20050;-73
2024/03/24 07:43:42;;;;;;;4.70;2.22;;;;;;;7.07;95.72;99099.66;5093385;29;20450;-71
2024/03/24 07:46:12;;;;;;;4.75;2.17;;;;;;;7.18;95.57;99087.00;5096244;29;20110;-74
2024/03/24 07:48:42;;;;;;;5.22;2.30;;;;;;;7.28;96.17;99092.56;5102681;28;20462;-72
2024/03/24 07:51:13;;;;;;;9.30;2.50;;;;;;;7.47;94.09;99083.00;5098602;29;20549;-74
2024/03/24 07:53:43;;;;;;;4.13;2.13;;;;;;;7.96;91.80;99081.47;5094729;29;20114;-71
2024/03/24 07:56:14;;;;;;;6.35;1.98;;;;;;;7.72;92.60;99074.88;5095904;29;20122;-74
2024/03/24 07:58:45;;;;;;;4.95;2.17;;;;;;;7.98;92.06;99072.69;5098159;29;20035;-73
2024/03/24 08:01:15;;;;;;;5.18;2.47;;;;;;;8.09;91.52;99075.63;5097079;29;20027;-73
2024/03/24 08:03:45;;;;;;;3.88;2.08;;;;;;;8.27;90.66;99069.53;5102709;29;20441;-73
2024/03/24 08:06:16;;;;;;;3.10;1.80;;;;;;;7.91;90.93;99073.88;5099547;29;20047;-73
2024/03/24 08:08:46;;;;;;;5.47;1.90;;;;;;;8.04;91.08;99082.78;5096121;29;20043;-72
2024/03/24 08:11:17;;;;;;;4.75;1.85;;;;;;;8.17;90.41;99073.47;5091195;29;20034;-72
2024/03/24 08:13:48;;;;;;;3.80;1.80;;;;;;;8.24;90.61;99069.66;5092978;29;20199;-75
2024/03/24 08:16:18;;;;;;;3.08;1.67;;;;;;;8.28;89.63;99083.38;5094519;29;20533;-73
2024/03/24 08:18:48;;;;;;;5.00;2.00;;;;;;;8.33;89.23;99076.16;5092409;29;20123;-73
2024/03/24 08:21:19;;;;;;;4.57;1.85;;;;;;;8.24;89.75;99084.44;5096830;29;20082;-73
2024/03/24 08:23:49;;;;;;;2.90;1.90;;;;;;;8.26;90.94;99080.84;5100213;29;20042;-72
2024/03/24 08:26:19;;;;;;;5.43;2.10;;;;;;;8.07;91.26;99085.22;5105326;29;20122;-74
2024/03/24 08:28:49;;;;;;;4.38;2.13;;;;;;;8.15;90.97;99092.66;5107199;28;20429;-74
2024/03/24 08:31:20;;;;;;;4.25;2.10;;;;;;;8.13;91.07;99086.69;5101397;28;20268;-74
2024/03/24 08:33:50;;;;;;;5.25;2.03;;;;;;;8.23;90.89;99094.00;5101418;29;20054;-74
2024/03/24 08:36:21;;;;;;;7.82;2.47;;;;;;;7.95;90.85;99098.84;5102688;28;20094;-75
2024/03/24 08:38:52;;;;;;;7.50;2.83;;;;;;;7.83;91.12;99088.19;5114720;28;20027;-75
2024/03/24 08:41:22;;;;;;;10.32;3.20;;;;;;;8.06;90.92;99090.53;5100984;29;20032;-74
2024/03/24 08:43:54;;;;;;;7.70;2.67;;;;;;;7.99;91.38;99083.91;5100065;28;20035;-74
2024/03/24 08:46:25;;;;;;;6.18;2.33;;;;;;;8.28;92.15;99085.97;5098872;29;20030;-73
2024/03/24 08:48:55;;;;;;;3.47;1.88;;;;;;;8.85;90.47;99089.03;5101395;28;20062;-72
2024/03/24 08:51:25;;;;;;;4.10;1.60;;;;;;;9.76;84.42;99080.53;5102068;28;20031;-75
2024/03/24 08:53:56;;;;;;;2.92;1.60;;;;;;;10.57;81.57;99070.56;5105432;28;20046;-73
2024/03/24 08:56:26;;;;;;;3.13;1.67;;;;;;;10.15;81.62;99070.47;5100688;28;20410;-75
2024/03/24 08:58:56;;;;;;;4.57;2.03;;;;;;;10.42;81.79;99068.84;5101608;28;20027;-74
2024/03/24 09:01:27;;;;;;;4.30;1.63;;;;;;;10.29;81.94;99080.94;5101357;29;20031;-75
2024/03/24 09:03:57;;;;;;;2.75;1.30;;;;;;;9.86;82.01;99077.31;5099222;29;20063;-74
2024/03/24 09:06:27;;;;;;;8.95;2.10;;;;;;;9.86;82.12;99081.69;5101086;28;20039;-75
2024/03/24 09:08:57;;;;;;;3.63;1.63;;;;;;;9.65;83.03;99080.31;5101230;28;20031;-74
2024/03/24 09:11:28;;;;;;;6.07;1.80;;;;;;;9.59;83.75;99080.63;5116035;28;20552;-75
2024/03/24 09:13:58;;;;;;;3.08;1.60;;;;;;;9.64;83.70;99076.00;5099544;28;20292;-74
2024/03/24 09:16:28;;;;;;;4.28;1.70;;;;;;;9.81;83.28;99081.94;5100696;28;20123;-75
2024/03/24 09:18:59;;;;;;;3.28;1.48;;;;;;;10.54;83.46;99075.97;5102062;28;20102;-75
2024/03/24 09:21:29;;;;;;;2.85;1.27;;;;;;;10.06;83.06;99084.03;5101563;29;20059;-74
2024/03/24 09:23:59;;;;;;;3.70;1.60;;;;;;;9.77;85.52;99071.78;5099678;29;20217;-73
2024/03/24 09:26:29;;;;;;;2.80;1.20;;;;;;;9.35;87.03;99092.41;5099180;28;20043;-74
2024/03/24 09:29:00;;;;;;;3.38;1.35;;;;;;;9.04;87.48;99088.94;5101022;29;20135;-74
2024/03/24 09:31:30;;;;;;;2.92;1.50;;;;;;;9.07;89.33;99088.75;5095836;29;20031;-73
2024/03/24 09:34:00;;;;;;;3.40;1.45;;;;;;;8.94;88.66;99103.34;5101123;28;20435;-74
2024/03/24 09:36:31;;;;;;;1.85;1.20;;;;;;;8.51;89.70;99104.72;5101368;29;20534;-74
2024/03/24 09:39:01;;;;;;;2.95;1.38;;;;;;;8.39;92.08;99102.72;5100156;28;20045;-74
2024/03/24 09:41:33;;;;;;;3.40;1.42;;;;;;;8.41;91.11;99105.25;5101199;28;20307;-74
2024/03/24 09:44:04;;;;;;;2.47;1.38;;;;;;;8.14;92.89;99109.19;5092471;28;20035;-74
2024/03/24 09:46:34;;;;;;;2.20;1.20;;;;;;;8.19;93.52;99113.28;5112664;28;20032;-74
2024/03/24 09:49:08;;;;;;;3.08;1.35;;;;;;;8.06;93.36;99104.34;5093326;29;20506;-74
2024/03/24 09:51:39;;;;;;;1.63;1.17;;;;;;;7.83;94.46;99104.66;5115828;28;20052;-71
2024/03/24 09:54:14;;;;;;;3.90;1.30;;;;;;;7.85;93.51;99115.81;5097841;28;20036;-74
2024/03/24 09:56:45;;;;;;;1.95;1.27;;;;;;;7.64;96.11;99114.22;5099046;28;20122;-72
2024/03/24 09:59:15;;;;;;;4.35;1.90;;;;;;;7.89;95.84;99114.75;5100923;29;20059;-74
2024/03/24 10:01:47;;;;;;;3.03;1.20;;;;;;;8.00;95.56;99128.06;5102544;28;20114;-72
2024/03/24 10:04:20;;;;;;;2.25;1.35;;;;;;;8.06;95.46;99122.56;5114195;28;20094;-73
2024/03/24 10:06:50;;;;;;;3.67;1.33;;;;;;;8.21;94.41;99116.66;5100887;28;20438;-73
2024/03/24 10:09:20;;;;;;;3.22;1.40;;;;;;;8.20;94.80;99116.75;5098871;28;20040;-72
2024/03/24 10:11:51;;;;;;;4.30;1.38;;;;;;;8.29;94.33;99124.94;5101769;29;20023;-73
2024/03/24 10:14:27;;;;;;;2.28;1.40;;;;;;;8.63;93.22;99119.72;5096541;28;20035;-72
2024/03/24 10:17:11;;;;;;;2.63;1.50;;;;;;;9.15;92.33;99103.06;5092816;28;20089;-74
2024/03/24 10:19:51;;;;;;;2.28;1.40;;;;;;;9.78;91.42;99094.31;5098551;28;20070;-71
2024/03/24 10:22:22;;;;;;;6.68;2.22;;;;;;;10.18;89.21;99085.97;5095061;29;20074;-72
2024/03/24 10:24:52;;;;;;;1.95;1.30;;;;;;;10.08;86.19;99088.25;5097934;28;20062;-74
2024/03/24 10:27:22;;;;;;;3.10;1.38;;;;;;;10.28;84.16;99082.72;5098342;28;20115;-72
2024/03/24 10:29:53;;;;;;;3.13;1.27;;;;;;;10.39;85.36;99093.41;5095879;28;20537;-74
2024/03/24 10:32:25;;;;;;;3.08;1.55;;;;;;;10.47;84.14;99085.94;5094264;29;20020;-71
2024/03/24 10:34:55;;;;;;;2.42;1.58;;;;;;;10.75;86.34;99079.91;5096353;28;20070;-72
2024/03/24 10:37:27;;;;;;;5.43;1.58;;;;;;;10.61;83.97;99082.50;5096819;29;20117;-72
2024/03/24 10:39:57;;;;;;;2.88;1.10;;;;;;;10.20;83.05;99089.31;5097808;28;20118;-75
2024/03/24 10:42:31;;;;;;;3.90;1.40;;;;;;;10.05;83.96;99087.59;5097380;29;20106;-72
2024/03/24 10:45:04;;;;;;;3.58;1.27;;;;;;;10.11;84.43;99084.63;5091848;28;20039;-74
2024/03/24 10:47:36;;;;;;;3.33;1.48;;;;;;;10.00;85.18;99082.59;5087348;28;20399;-74
2024/03/24 10:50:12;;;;;;;3.75;1.83;;;;;;;9.99;85.58;99077.47;5095355;28;20047;-73
2024/03/24 10:52:42;;;;;;;2.88;1.48;;;;;;;9.81;83.54;99079.34;5091408;29;20095;-72
2024/03/24 10:55:13;;;;;;;4.05;1.90;;;;;;;9.84;83.53;99083.56;5090977;28;20036;-73
2024/03/24 10:57:46;;;;;;;7.30;2.05;;;;;;;9.97;83.93;99079.34;5089187;28;20530;-71
2024/03/24 11:00:16;;;;;;;3.47;1.55;;;;;;;9.95;83.45;99081.16;5093926;28;20053;-74
2024/03/24 11:02:47;;;;;;;4.28;1.60;;;;;;;10.12;83.87;99078.47;5098943;29;20031;-74
2024/03/24 11:05:17;;;;;;;3.78;1.52;;;;;;;10.06;83.53;99084.03;5093647;28;20047;-74
2024/03/24 11:07:48;;;;;;;3.00;1.38;;;;;;;9.95;82.66;99076.81;5100020;28;20027;-72
2024/03/24 11:10:20;;;;;;;2.65;1.30;;;;;;;9.86;83.08;99073.88;5091485;28;20403;-74
2024/03/24 11:12:52;;;;;;;4.28;1.40;;;;;;;10.06;82.99;99074.47;5102757;28;20035;-73
2024/03/24 11:15:23;;;;;;;3.00;1.20;;;;;;;10.12;83.49;99068.88;5095864;28;20511;-72
2024/03/24 11:17:54;;;;;;;3.15;1.33;;;;;;;10.19;81.93;99072.81;5095552;29;20035;-76
2024/03/24 11:20:24;;;;;;;5.82;2.30;;;;;;;10.21;81.40;99067.50;5100447;28;20276;-72
2024/03/24 11:22:55;;;;;;;2.60;1.25;;;;;;;10.35;80.35;99063.16;5098347;29;20035;-71
2024/03/24 11:25:35;;;;;;;5.65;2.20;;;;;;;10.53;81.08;99054.22;5097402;28;20376;-72
2024/03/24 11:28:05;;;;;;;3.28;1.50;;;;;;;10.80;81.45;99051.72;5098555;28;20154;-74
2024/03/24 11:30:36;;;;;;;3.03;1.05;;;;;;;10.69;80.74;99056.78;5095577;28;20378;-73
2024/03/24 11:33:06;;;;;;;3.70;1.15;;;;;;;10.70;80.21;99055.84;5098273;28;20391;-74
2024/03/24 11:35:37;;;;;;;2.97;1.02;;;;;;;10.66;79.03;99054.34;5100012;28;20049;-73
2024/03/24 11:38:13;;;;;;;2.60;1.00;;;;;;;10.44;79.29;99044.34;5098489;28;20546;-73
2024/03/24 11:40:45;;;;;;;4.75;0.93;;;;;;;10.56;80.40;99053.22;5096251;28;20782;-73
2024/03/24 11:43:18;;;;;;;2.80;0.90;;;;;;;10.51;79.87;99052.66;5108162;28;20112;-73
2024/03/24 11:46:03;;;;;;;5.40;1.48;;;;;;;10.58;79.86;99046.97;5093452;29;20038;-72
2024/03/24 11:48:34;;;;;;;3.38;1.08;;;;;;;10.94;79.98;99051.72;5091035;28;20047;-74
2024/03/24 11:51:06;;;;;;;3.78;0.90;;;;;;;10.82;78.86;99032.41;5096211;28;20068;-75
2024/03/24 11:53:37;;;;;;;2.65;1.02;;;;;;;10.86;78.24;99022.63;5099660;28;20039;-74
2024/03/24 11:56:08;;;;;;;3.92;0.98;;;;;;;10.78;77.97;99027.47;5093050;28;20204;-72